Rechercher aéroport 
image banner adimage banner ad
image banner ad

DAOY - El Bayadh

Situé à El Bayadh, Algeria

ICAO - DAOY, IATA - EBH

Données fournies par Airmate  

Information générale

Coordonnées: N33°43'15" E1°5'29"
Élévation : 4481 feet MSL.
 
Voir autres Aéroports à El Bayadh Province

Données opérationnelles

Accessible au public
Heure actuelle UTC:
Heure actuelle locale:
Météo
METAR: DAOY 230500Z 06004KT CAVOK 16/05 Q1021
Voir NOTAMs / SUP AIP / TFR affectant cet aéroport [VIEW]
Fréquences de communication: [VIEW]

Pistes:

Identifiant RWYQFULongueur (ft)Largeur (ft)SurfaceLDA (ft)
0442°9843148
22222°9843148

Coordonnées de l'aéroport

Adresse: El Bayadh Algeria

Vue satellite de DAOY